createdAt,value
2022-12-18T00:00:13.611Z,-3.54
2022-12-18T00:02:22.919Z,-3.61
2022-12-18T00:04:28.044Z,-3.60
2022-12-18T00:06:33.568Z,-3.70
2022-12-18T00:08:36.915Z,-3.69
2022-12-18T00:10:41.631Z,-3.73
2022-12-18T00:12:45.021Z,-3.72
2022-12-18T00:14:48.473Z,-3.72
2022-12-18T00:16:51.935Z,-3.71
2022-12-18T00:18:59.724Z,-3.92
2022-12-18T00:21:04.250Z,-3.73
2022-12-18T00:23:08.342Z,-3.71
2022-12-18T00:25:11.681Z,-3.77
2022-12-18T00:27:16.316Z,-3.76
2022-12-18T00:29:19.638Z,-3.77
2022-12-18T00:31:25.631Z,-3.79
2022-12-18T00:33:30.354Z,-3.78
2022-12-18T00:35:33.805Z,-3.77
2022-12-18T00:37:37.151Z,-3.77
2022-12-18T00:39:41.578Z,-3.76
2022-12-18T00:42:02.482Z,-3.77
2022-12-18T00:44:08.775Z,-3.80
2022-12-18T00:46:12.462Z,-3.78
2022-12-18T00:48:15.879Z,-3.79
2022-12-18T00:50:19.698Z,-3.73
2022-12-18T00:52:23.015Z,-3.66
2022-12-18T00:54:26.408Z,-3.73
2022-12-18T00:56:31.695Z,-3.80
2022-12-18T00:58:37.847Z,-3.75
2022-12-18T01:00:43.239Z,-3.85
2022-12-18T01:02:48.262Z,-3.73
2022-12-18T01:04:51.722Z,-3.80
2022-12-18T01:06:56.880Z,-3.69
2022-12-18T01:09:00.247Z,-3.70
2022-12-18T01:11:08.846Z,-3.67
2022-12-18T01:13:12.305Z,-3.86
2022-12-18T01:15:17.795Z,-3.71
2022-12-18T01:17:23.558Z,-3.62
2022-12-18T01:19:27.055Z,-3.67
2022-12-18T01:21:31.671Z,-3.71
2022-12-18T01:23:40.902Z,-3.78
2022-12-18T01:25:44.635Z,-3.77
2022-12-18T01:27:47.971Z,-3.63
2022-12-18T01:29:51.864Z,-3.58
2022-12-18T01:31:57.685Z,-3.62
2022-12-18T01:34:04.135Z,-3.67
2022-12-18T01:36:07.874Z,-3.61
2022-12-18T01:38:11.758Z,-3.63
2022-12-18T01:40:15.115Z,-3.58
2022-12-18T01:42:18.632Z,-3.62
2022-12-18T01:44:58.892Z,-3.54
2022-12-18T01:47:02.457Z,-3.51
2022-12-18T01:49:07.180Z,-3.51
2022-12-18T01:51:13.378Z,-3.45
2022-12-18T01:53:20.863Z,-3.53
2022-12-18T01:55:26.883Z,-3.94
2022-12-18T01:57:31.342Z,-3.54
2022-12-18T01:59:37.226Z,-3.61
2022-12-18T02:01:40.741Z,-3.65
2022-12-18T02:03:45.775Z,-3.73
2022-12-18T02:06:00.510Z,-3.61
2022-12-18T02:08:12.478Z,-3.57
2022-12-18T02:10:20.995Z,-3.61
2022-12-18T02:12:27.428Z,-3.63
2022-12-18T02:14:39.011Z,-3.66
2022-12-18T02:16:50.856Z,-3.68
2022-12-18T02:19:00.084Z,-3.69
2022-12-18T02:21:14.554Z,-3.63
2022-12-18T02:23:35.654Z,-3.66
2022-12-18T02:26:08.702Z,-3.63
2022-12-18T02:28:17.570Z,-3.66
2022-12-18T02:30:22.656Z,-3.73
2022-12-18T02:32:30.380Z,-3.68
2022-12-18T02:34:39.305Z,-3.61
2022-12-18T02:36:48.086Z,-3.60
2022-12-18T02:38:54.274Z,-3.65
2022-12-18T02:40:59.645Z,-3.59
2022-12-18T02:43:10.297Z,-3.58
2022-12-18T02:45:16.115Z,-3.56
2022-12-18T02:47:24.098Z,-3.60
2022-12-18T02:49:37.024Z,-3.68
2022-12-18T02:51:49.915Z,-3.72
2022-12-18T02:53:58.353Z,-3.75
2022-12-18T02:56:07.985Z,-3.64
2022-12-18T02:58:19.491Z,-3.71
2022-12-18T03:00:35.776Z,-3.76
2022-12-18T03:02:47.251Z,-3.77
2022-12-18T03:05:00.519Z,-3.77
2022-12-18T03:07:07.759Z,-3.88
2022-12-18T03:09:15.993Z,-3.88
2022-12-18T03:11:39.761Z,-3.86
2022-12-18T03:13:47.833Z,-3.85
2022-12-18T03:15:57.558Z,-3.97
2022-12-18T03:18:04.871Z,-3.91
2022-12-18T03:20:14.269Z,-3.89
2022-12-18T03:22:18.284Z,-3.92
2022-12-18T03:24:29.458Z,-3.95
2022-12-18T03:26:34.547Z,-3.90
2022-12-18T03:28:44.111Z,-3.92
2022-12-18T03:30:51.317Z,-3.93
2022-12-18T03:33:02.822Z,-3.92
2022-12-18T03:35:09.174Z,-3.92
2022-12-18T03:37:14.605Z,-3.99
2022-12-18T03:39:18.594Z,-4.60
2022-12-18T03:41:34.352Z,-3.93
2022-12-18T03:44:02.265Z,-3.91
2022-12-18T03:46:10.198Z,-3.98
2022-12-18T03:48:21.110Z,-3.89
2022-12-18T03:50:35.632Z,-3.92
2022-12-18T03:52:44.637Z,-3.94
2022-12-18T03:54:49.450Z,-3.79
2022-12-18T03:57:00.504Z,-3.83
2022-12-18T03:59:07.896Z,-3.87
2022-12-18T04:01:15.437Z,-3.84
2022-12-18T04:03:26.183Z,-3.97
2022-12-18T04:05:32.491Z,-4.26
2022-12-18T04:07:36.870Z,-3.88
2022-12-18T04:09:43.255Z,-3.83
2022-12-18T04:11:48.428Z,-3.88
2022-12-18T04:13:57.762Z,-3.82
2022-12-18T04:16:01.344Z,-3.80
2022-12-18T04:18:05.649Z,-3.89
2022-12-18T04:20:19.047Z,-3.84
2022-12-18T04:22:23.365Z,-3.86
2022-12-18T04:24:31.988Z,-3.88
2022-12-18T04:26:48.398Z,-3.89
2022-12-18T04:28:55.015Z,-3.92
2022-12-18T04:30:58.498Z,-3.84
2022-12-18T04:33:01.917Z,-3.81
2022-12-18T04:35:11.475Z,-3.77
2022-12-18T04:37:19.184Z,-3.87
2022-12-18T04:39:24.714Z,-3.91
2022-12-18T04:41:31.190Z,-3.87
2022-12-18T04:43:35.331Z,-3.83
2022-12-18T04:45:38.652Z,-3.81
2022-12-18T04:47:42.169Z,-3.91
2022-12-18T04:49:47.474Z,-3.92
2022-12-18T04:51:51.023Z,-3.89
2022-12-18T04:53:55.832Z,-4.00
2022-12-18T04:56:10.428Z,-4.05
2022-12-18T04:58:13.784Z,-4.10
2022-12-18T05:00:17.641Z,-4.13
2022-12-18T05:02:21.055Z,-4.26
2022-12-18T05:04:24.550Z,-4.27
2022-12-18T05:06:27.850Z,-4.25
2022-12-18T05:08:31.535Z,-4.27
2022-12-18T05:10:38.307Z,-4.21
2022-12-18T05:12:55.835Z,-4.16
2022-12-18T05:14:59.238Z,-4.13
2022-12-18T05:17:02.571Z,-4.16
2022-12-18T05:19:05.947Z,-4.14
2022-12-18T05:21:09.595Z,-4.11
2022-12-18T05:23:13.017Z,-4.04
2022-12-18T05:25:16.990Z,-4.07
2022-12-18T05:27:21.705Z,-4.13
2022-12-18T05:29:25.188Z,-4.05
2022-12-18T05:31:28.769Z,-4.16
2022-12-18T05:33:34.192Z,-4.15
2022-12-18T05:35:38.281Z,-4.22
2022-12-18T05:37:43.504Z,-4.21
2022-12-18T05:39:47.018Z,-4.20
2022-12-18T05:41:50.321Z,-4.20
2022-12-18T05:43:54.976Z,-4.21
2022-12-18T05:45:58.799Z,-4.20
2022-12-18T05:48:02.176Z,-4.16
2022-12-18T05:50:06.500Z,-4.14
2022-12-18T05:52:09.931Z,-4.17
2022-12-18T05:54:13.372Z,-4.17
2022-12-18T05:56:18.941Z,-4.09
2022-12-18T05:58:22.288Z,-4.05
2022-12-18T06:00:27.013Z,-4.07
2022-12-18T06:02:30.390Z,-4.06
2022-12-18T06:04:33.843Z,-4.02
2022-12-18T06:06:37.704Z,-3.96
2022-12-18T06:08:46.021Z,-4.08
2022-12-18T06:10:53.220Z,-4.09
2022-12-18T06:12:56.585Z,-4.10
2022-12-18T06:14:59.885Z,-4.16
2022-12-18T06:17:04.643Z,-4.15
2022-12-18T06:19:08.067Z,-4.16
2022-12-18T06:21:11.517Z,-4.15
2022-12-18T06:23:14.849Z,-4.16
2022-12-18T06:25:18.446Z,-4.16
2022-12-18T06:27:22.123Z,-4.13
2022-12-18T06:29:25.492Z,-4.08
2022-12-18T06:31:28.891Z,-4.16
2022-12-18T06:33:34.424Z,-4.19
2022-12-18T06:35:37.887Z,-4.27
2022-12-18T06:37:41.295Z,-4.24
2022-12-18T06:39:44.625Z,-4.20
2022-12-18T06:41:47.965Z,-4.23
2022-12-18T06:43:55.611Z,-4.14
2022-12-18T06:46:01.933Z,-4.20
2022-12-18T06:48:08.489Z,-4.18
2022-12-18T06:50:13.741Z,-4.13
2022-12-18T06:52:19.926Z,-4.19
2022-12-18T06:54:23.452Z,-4.14
2022-12-18T06:56:27.324Z,-4.22
2022-12-18T06:58:30.682Z,-4.19
2022-12-18T07:00:34.024Z,-4.17
2022-12-18T07:02:37.702Z,-4.15
2022-12-18T07:04:41.093Z,-4.08
2022-12-18T07:06:45.801Z,-4.13
2022-12-18T07:08:50.518Z,-4.16
2022-12-18T07:10:56.406Z,-4.15
2022-12-18T07:12:59.926Z,-4.23
2022-12-18T07:15:03.317Z,-4.29
2022-12-18T07:17:06.804Z,-4.27
2022-12-18T07:19:10.447Z,-4.20
2022-12-18T07:21:17.829Z,-4.21
2022-12-18T07:23:22.484Z,-4.24
2022-12-18T07:25:25.864Z,-4.25
2022-12-18T07:27:29.159Z,-4.22
2022-12-18T07:29:32.744Z,-4.20
2022-12-18T07:31:36.774Z,-4.18
2022-12-18T07:33:40.794Z,-4.23
2022-12-18T07:35:44.557Z,-4.10
2022-12-18T07:37:48.157Z,-4.09
2022-12-18T07:39:52.804Z,-4.08
2022-12-18T07:42:10.078Z,-4.04
2022-12-18T07:44:16.778Z,-4.11
2022-12-18T07:46:20.284Z,-4.13
2022-12-18T07:48:23.700Z,-4.18
2022-12-18T07:50:26.973Z,-4.25
2022-12-18T07:52:30.299Z,-4.22
2022-12-18T07:54:34.343Z,-4.19
2022-12-18T07:56:39.089Z,-4.23
2022-12-18T07:58:42.556Z,-4.23
2022-12-18T08:00:45.826Z,-4.16
2022-12-18T08:02:49.211Z,-4.12
2022-12-18T08:04:52.611Z,-4.10
2022-12-18T08:06:56.015Z,-4.14
2022-12-18T08:08:59.434Z,-4.09
2022-12-18T08:11:03.667Z,-4.04
2022-12-18T08:13:08.405Z,-4.03
2022-12-18T08:15:12.136Z,-4.08
2022-12-18T08:17:15.497Z,-4.11
2022-12-18T08:19:18.804Z,-4.12
2022-12-18T08:21:24.263Z,-4.11
2022-12-18T08:23:28.851Z,-3.99
2022-12-18T08:25:32.280Z,-4.01
2022-12-18T08:27:35.894Z,-3.90
2022-12-18T08:29:40.560Z,-3.88
2022-12-18T08:31:43.992Z,-3.90
2022-12-18T08:33:49.813Z,-3.88
2022-12-18T08:35:53.081Z,-3.84
2022-12-18T08:37:56.408Z,-3.86
2022-12-18T08:39:59.698Z,-3.83
2022-12-18T08:42:20.574Z,-3.78
2022-12-18T08:44:42.185Z,-3.77
2022-12-18T08:46:46.841Z,-3.85
2022-12-18T08:48:52.041Z,-3.63
2022-12-18T08:50:56.659Z,-3.54
2022-12-18T08:53:00.000Z,-3.46
2022-12-18T08:55:03.295Z,-3.36
2022-12-18T08:57:06.603Z,-3.27
2022-12-18T08:59:15.962Z,-3.21
2022-12-18T09:01:23.534Z,-3.21
2022-12-18T09:03:28.325Z,-3.03
2022-12-18T09:05:32.588Z,-2.93
2022-12-18T09:07:35.967Z,-2.88
2022-12-18T09:09:39.429Z,-2.80
2022-12-18T09:11:42.738Z,-2.81
2022-12-18T09:13:46.036Z,-2.80
2022-12-18T09:15:51.448Z,-2.88
2022-12-18T09:17:54.877Z,-2.84
2022-12-18T09:19:59.624Z,-2.86
2022-12-18T09:22:03.225Z,-2.82
2022-12-18T09:24:09.159Z,-2.79
2022-12-18T09:26:12.702Z,-2.81
2022-12-18T09:28:18.235Z,-2.72
2022-12-18T09:30:21.588Z,-2.58
2022-12-18T09:32:24.883Z,-2.51
2022-12-18T09:34:28.319Z,-2.40
2022-12-18T09:36:32.971Z,-2.33
2022-12-18T09:38:37.177Z,-2.27
2022-12-18T09:40:44.800Z,-2.23
2022-12-18T09:42:55.908Z,-2.14
2022-12-18T09:45:01.383Z,-2.42
2022-12-18T09:47:14.590Z,-2.04
2022-12-18T09:49:20.672Z,-2.37
2022-12-18T09:51:30.656Z,-1.99
2022-12-18T09:53:40.042Z,-1.96
2022-12-18T09:55:46.899Z,-1.94
2022-12-18T09:57:55.417Z,-1.94
2022-12-18T10:00:04.018Z,-1.85
2022-12-18T10:02:22.276Z,-1.93
2022-12-18T10:04:26.315Z,-1.85
2022-12-18T10:06:37.613Z,-1.77
2022-12-18T10:08:51.173Z,-2.07
2022-12-18T10:10:59.154Z,-1.66
2022-12-18T10:13:15.271Z,-1.63
2022-12-18T10:15:26.417Z,-1.51
2022-12-18T10:17:40.587Z,-1.38
2022-12-18T10:19:50.359Z,-1.44
2022-12-18T10:22:04.976Z,-1.32
2022-12-18T10:24:22.433Z,-1.24
2022-12-18T10:26:26.964Z,-1.14
2022-12-18T10:28:32.185Z,-1.02
2022-12-18T10:30:35.567Z,-0.97
2022-12-18T10:32:38.880Z,-0.92
2022-12-18T10:34:42.817Z,-0.83
2022-12-18T10:36:46.258Z,-0.74
2022-12-18T10:38:49.624Z,-0.72
2022-12-18T10:40:56.876Z,-0.68
2022-12-18T10:43:06.757Z,-0.62
2022-12-18T10:45:13.653Z,-0.60
2022-12-18T10:47:20.901Z,-0.63
2022-12-18T10:49:27.463Z,-0.59
2022-12-18T10:51:34.490Z,-0.55
2022-12-18T10:53:39.379Z,-0.49
2022-12-18T10:55:47.898Z,-0.45
2022-12-18T10:57:53.094Z,-0.47
2022-12-18T10:59:58.527Z,-0.50
2022-12-18T11:02:02.711Z,-0.47
2022-12-18T11:04:11.311Z,-0.54
2022-12-18T11:06:16.879Z,-0.46
2022-12-18T11:08:24.257Z,-0.41
2022-12-18T11:10:32.517Z,-0.40
2022-12-18T11:12:35.832Z,-0.33
2022-12-18T11:14:48.285Z,-0.35
2022-12-18T11:19:28.430Z,-0.21
2022-12-18T11:21:31.930Z,-0.32
2022-12-18T11:23:36.202Z,-0.27
2022-12-18T11:25:40.215Z,-0.27
2022-12-18T11:27:50.586Z,-0.26
2022-12-18T11:30:08.759Z,-0.25
2022-12-18T11:32:29.279Z,-0.27
2022-12-18T11:34:34.080Z,-0.26
2022-12-18T11:36:43.098Z,-0.28
2022-12-18T11:38:49.776Z,-0.30
2022-12-18T11:40:58.874Z,-0.33
2022-12-18T11:43:09.508Z,-0.39
2022-12-18T11:45:28.558Z,-0.37
2022-12-18T11:47:41.272Z,-0.33
2022-12-18T11:49:49.045Z,-0.32
2022-12-18T11:51:57.719Z,-0.34
2022-12-18T11:54:02.314Z,-0.37
2022-12-18T11:56:22.071Z,-0.41
2022-12-18T11:58:46.817Z,-0.41
2022-12-18T12:00:59.859Z,-0.50
2022-12-18T12:03:38.968Z,-0.49
2022-12-18T12:05:53.814Z,-0.44
2022-12-18T12:08:04.522Z,-0.39
2022-12-18T12:10:19.522Z,-0.41
2022-12-18T12:12:48.618Z,-0.55
2022-12-18T12:15:01.880Z,-0.48
2022-12-18T12:17:18.181Z,-0.47
2022-12-18T12:19:34.482Z,-0.49
2022-12-18T12:21:42.065Z,-0.50
2022-12-18T12:23:55.952Z,-0.60
2022-12-18T12:26:04.173Z,-0.56
2022-12-18T12:28:20.155Z,-0.56
2022-12-18T12:30:32.693Z,-0.60
2022-12-18T12:32:47.771Z,-0.78
2022-12-18T12:35:09.633Z,-0.54
2022-12-18T12:37:24.801Z,-0.61
2022-12-18T12:39:33.300Z,-0.94
2022-12-18T12:41:56.490Z,-0.57
2022-12-18T12:44:03.820Z,-0.55
2022-12-18T12:46:09.042Z,-0.68
2022-12-18T12:48:19.072Z,-1.00
2022-12-18T12:50:24.566Z,-0.72
2022-12-18T12:52:35.504Z,-0.76
2022-12-18T12:54:39.121Z,-0.73
2022-12-18T12:56:47.950Z,-0.74
2022-12-18T12:59:00.459Z,-0.74
2022-12-18T13:01:17.263Z,-0.71
2022-12-18T13:03:38.500Z,-0.70
2022-12-18T13:05:50.392Z,-0.71
2022-12-18T13:07:58.515Z,-0.75
2022-12-18T13:10:36.832Z,-0.67
2022-12-18T13:12:58.598Z,-0.72
2022-12-18T13:15:21.839Z,-0.75
2022-12-18T13:17:31.854Z,-0.73
2022-12-18T13:19:37.338Z,-0.72
2022-12-18T13:21:40.783Z,-0.70
2022-12-18T13:23:45.037Z,-0.67
2022-12-18T13:25:48.804Z,-0.67
2022-12-18T13:28:03.602Z,-0.72
2022-12-18T13:30:51.742Z,-0.77
2022-12-18T13:34:02.127Z,-0.82
2022-12-18T13:36:16.218Z,-0.84
2022-12-18T13:38:24.572Z,-0.74
2022-12-18T13:40:57.170Z,-0.75
2022-12-18T13:43:15.654Z,-0.82
2022-12-18T13:45:46.890Z,-0.84
2022-12-18T13:47:51.981Z,-0.87
2022-12-18T13:49:56.793Z,-0.90
2022-12-18T13:52:02.189Z,-0.88
2022-12-18T13:54:18.605Z,-0.93
2022-12-18T13:56:25.774Z,-0.88
2022-12-18T13:58:30.490Z,-0.87
2022-12-18T14:00:33.807Z,-0.84
2022-12-18T14:02:37.181Z,-0.78
2022-12-18T14:04:41.066Z,-0.82
2022-12-18T14:06:47.421Z,-0.81
2022-12-18T14:08:53.321Z,-0.84
2022-12-18T14:10:57.464Z,-0.87
2022-12-18T14:13:07.821Z,-0.87
2022-12-18T14:15:25.252Z,-0.97
2022-12-18T14:17:28.797Z,-0.99
2022-12-18T14:19:33.895Z,-0.95
2022-12-18T14:21:39.712Z,-0.98
2022-12-18T14:23:44.570Z,-1.05
2022-12-18T14:25:49.522Z,-0.95
2022-12-18T14:27:55.401Z,-1.01
2022-12-18T14:29:59.161Z,-1.03
2022-12-18T14:32:18.894Z,-1.00
2022-12-18T14:34:28.317Z,-1.01
2022-12-18T14:36:31.839Z,-1.01
2022-12-18T14:38:36.303Z,-0.96
2022-12-18T14:40:39.669Z,-1.01
2022-12-18T14:42:45.474Z,-0.98
2022-12-18T14:45:12.912Z,-1.01
2022-12-18T14:47:16.314Z,-1.04
2022-12-18T14:49:25.197Z,-1.05
2022-12-18T14:51:32.034Z,-1.04
2022-12-18T14:53:41.465Z,-1.06
2022-12-18T14:55:48.778Z,-1.06
2022-12-18T14:57:56.032Z,-1.06
2022-12-18T15:00:07.135Z,-1.02
2022-12-18T15:02:20.932Z,-1.04
2022-12-18T15:04:28.389Z,-1.14
2022-12-18T15:06:34.645Z,-1.11
2022-12-18T15:08:39.058Z,-1.13
2022-12-18T15:10:49.742Z,-1.16
2022-12-18T15:13:10.043Z,-1.09
2022-12-18T15:15:47.963Z,-1.16
2022-12-18T15:17:51.384Z,-1.10
2022-12-18T15:20:02.157Z,-1.18
2022-12-18T15:22:06.732Z,-1.15
2022-12-18T15:24:19.978Z,-1.10
2022-12-18T15:26:24.171Z,-1.07
2022-12-18T15:28:33.437Z,-1.13
2022-12-18T15:30:37.565Z,-1.11
2022-12-18T15:32:44.757Z,-1.33
2022-12-18T15:34:48.043Z,-1.25
2022-12-18T15:36:52.458Z,-1.25
2022-12-18T15:39:01.328Z,-1.36
2022-12-18T15:41:14.459Z,-1.24
2022-12-18T15:43:35.618Z,-1.35
2022-12-18T15:45:40.527Z,-1.23
2022-12-18T15:47:44.365Z,-1.25
2022-12-18T15:49:50.751Z,-1.38
2022-12-18T15:51:55.855Z,-1.23
2022-12-18T15:54:01.748Z,-1.23
2022-12-18T15:56:24.767Z,-1.63
2022-12-18T15:58:28.072Z,-1.31
2022-12-18T16:00:31.920Z,-1.29
2022-12-18T16:02:36.896Z,-1.34
2022-12-18T16:04:40.372Z,-1.34
2022-12-18T16:07:58.422Z,-1.32
2022-12-18T16:10:02.952Z,-1.40
2022-12-18T16:12:07.301Z,-1.44
2022-12-18T16:15:24.094Z,-1.46
2022-12-18T16:25:18.208Z,-1.43
2022-12-18T16:27:37.568Z,-1.49
2022-12-18T16:39:46.534Z,-1.51
2022-12-18T16:41:50.376Z,-1.51
2022-12-18T16:43:55.390Z,-1.47
2022-12-18T17:16:03.680Z,-1.61
2022-12-18T17:18:07.085Z,-1.68
2022-12-18T17:20:11.232Z,-1.72
2022-12-18T17:22:14.529Z,-1.70
2022-12-18T17:24:18.423Z,-1.71
2022-12-18T17:26:22.873Z,-1.69
2022-12-18T17:28:26.662Z,-1.71
2022-12-18T17:30:31.084Z,-1.74
2022-12-18T17:32:35.882Z,-1.76
2022-12-18T17:34:39.305Z,-1.81
2022-12-18T17:36:42.667Z,-1.84
2022-12-18T17:38:51.624Z,-1.81
2022-12-18T17:40:56.240Z,-1.79
2022-12-18T17:42:59.926Z,-1.85
2022-12-18T17:45:03.231Z,-1.80
2022-12-18T17:47:06.710Z,-1.84
2022-12-18T17:49:12.491Z,-1.87
2022-12-18T17:51:17.568Z,-1.90
2022-12-18T17:53:20.893Z,-1.92
2022-12-18T17:55:24.418Z,-1.90
2022-12-18T18:01:49.393Z,-1.85
2022-12-18T18:03:54.066Z,-1.89
2022-12-18T18:06:00.334Z,-2.29
2022-12-18T18:08:03.745Z,-1.94
2022-12-18T18:10:09.115Z,-2.16
2022-12-18T18:12:30.713Z,-1.95
2022-12-18T18:14:34.126Z,-1.99
2022-12-18T18:16:40.780Z,-1.99
2022-12-18T18:18:44.196Z,-1.98
2022-12-18T18:20:47.489Z,-1.94
2022-12-18T18:22:52.147Z,-1.92
2022-12-18T18:24:55.509Z,-1.93
2022-12-18T18:26:59.956Z,-1.90
2022-12-18T18:29:05.214Z,-1.88
2022-12-18T18:31:10.549Z,-1.92
2022-12-18T18:33:14.130Z,-1.95
2022-12-18T18:35:45.022Z,-1.88
2022-12-18T18:37:41.089Z,-1.89
2022-12-18T18:39:46.901Z,-1.93
2022-12-18T18:41:50.288Z,-1.94
2022-12-18T18:43:56.562Z,-1.90
2022-12-18T18:46:01.137Z,-2.04
2022-12-18T18:48:05.563Z,-1.90
2022-12-18T18:50:09.513Z,-1.91
2022-12-18T18:52:12.892Z,-1.92
2022-12-18T18:54:16.221Z,-1.95
2022-12-18T18:58:45.868Z,-1.88
2022-12-18T19:00:56.252Z,-1.82
2022-12-18T19:03:00.970Z,-1.83
2022-12-18T19:05:04.798Z,-1.79
2022-12-18T19:07:08.668Z,-1.78
2022-12-18T19:09:12.471Z,-1.71
2022-12-18T19:11:36.558Z,-1.75
2022-12-18T19:13:41.854Z,-1.74
2022-12-18T19:15:45.918Z,-1.76
2022-12-18T19:17:49.503Z,-1.90
2022-12-18T19:19:53.140Z,-1.78
2022-12-18T19:21:56.458Z,-1.75
2022-12-18T19:24:00.226Z,-1.64
2022-12-18T19:26:26.960Z,-1.70
2022-12-18T19:28:28.748Z,-1.60
2022-12-18T19:30:33.556Z,-1.62
2022-12-18T19:32:36.926Z,-1.66
2022-12-18T19:34:40.420Z,-1.65
2022-12-18T19:36:44.130Z,-1.69
2022-12-18T19:38:48.432Z,-1.65
2022-12-18T19:40:52.875Z,-1.67
2022-12-18T19:42:56.497Z,-1.62
2022-12-18T19:44:59.973Z,-1.60
2022-12-18T19:47:04.870Z,-1.64
2022-12-18T19:49:08.364Z,-1.56
2022-12-18T19:51:15.275Z,-1.78
2022-12-18T19:53:18.757Z,-1.53
2022-12-18T19:55:22.301Z,-1.58
2022-12-18T19:57:25.778Z,-1.51
2022-12-18T19:59:29.274Z,-1.53
2022-12-18T20:01:33.689Z,-1.50
2022-12-18T20:03:38.872Z,-1.47
2022-12-18T20:05:42.603Z,-1.44
2022-12-18T20:07:46.088Z,-1.38
2022-12-18T20:09:51.666Z,-1.41
2022-12-18T20:12:00.512Z,-1.38
2022-12-18T20:14:04.976Z,-1.38
2022-12-18T20:16:08.945Z,-1.28
2022-12-18T20:18:12.388Z,-1.21
2022-12-18T20:20:17.256Z,-1.26
2022-12-18T20:22:21.853Z,-1.30
2022-12-18T20:24:25.250Z,-1.25
2022-12-18T20:26:28.905Z,-1.27
2022-12-18T20:28:32.272Z,-1.27
2022-12-18T20:30:35.697Z,-1.17
2022-12-18T20:32:39.056Z,-1.17
2022-12-18T20:34:42.922Z,-1.17
2022-12-18T20:36:47.734Z,-1.13
2022-12-18T20:38:52.886Z,-1.14
2022-12-18T20:41:02.269Z,-1.14
2022-12-18T20:43:07.004Z,-1.13
2022-12-18T20:45:10.926Z,-1.10
2022-12-18T20:47:14.289Z,-1.09
2022-12-18T20:49:18.026Z,-0.97
2022-12-18T20:51:22.694Z,-1.03
2022-12-18T20:53:27.437Z,-1.01
2022-12-18T20:55:30.731Z,-0.97
2022-12-18T20:57:34.470Z,-0.95
2022-12-18T20:59:44.786Z,-0.92
2022-12-18T21:01:53.951Z,-0.96
2022-12-18T21:03:57.303Z,-0.90
2022-12-18T21:06:00.803Z,-0.87
2022-12-18T21:08:04.181Z,-0.84
2022-12-18T21:10:10.040Z,-0.84
2022-12-18T21:12:35.103Z,-0.85
2022-12-18T21:14:46.246Z,-0.84
2022-12-18T21:16:55.206Z,-0.81
2022-12-18T21:18:59.036Z,-0.82
2022-12-18T21:21:02.579Z,-0.76
2022-12-18T21:23:15.978Z,-0.81
2022-12-18T21:25:21.456Z,-0.80
2022-12-18T21:27:24.844Z,-0.77
2022-12-18T21:29:28.217Z,-0.74
2022-12-18T21:31:34.337Z,-0.72
2022-12-18T21:33:37.720Z,-0.72
2022-12-18T21:35:41.006Z,-0.70
2022-12-18T21:37:44.317Z,-0.72
2022-12-18T21:39:48.100Z,-0.68
2022-12-18T21:42:10.611Z,-0.83
2022-12-18T21:44:16.411Z,-0.63
2022-12-18T21:46:19.848Z,-0.65
2022-12-18T21:48:23.360Z,-0.69
2022-12-18T21:50:26.699Z,-0.70
2022-12-18T21:52:32.217Z,-0.71
2022-12-18T21:54:36.257Z,-0.69
2022-12-18T21:56:48.307Z,-0.69
2022-12-18T21:58:56.957Z,-0.68
2022-12-18T22:01:01.032Z,-0.66
2022-12-18T22:03:18.763Z,-0.68
2022-12-18T22:05:23.249Z,-0.65
2022-12-18T22:07:26.599Z,-0.64
2022-12-18T22:09:29.911Z,-0.65
2022-12-18T22:11:33.483Z,-0.68
2022-12-18T22:13:36.742Z,-0.65
2022-12-18T22:15:41.505Z,-0.62
2022-12-18T22:17:45.056Z,-0.61
2022-12-18T22:19:48.474Z,-0.68
2022-12-18T22:21:52.373Z,-0.67
2022-12-18T22:23:57.101Z,-0.69
2022-12-18T22:26:10.712Z,-0.68
2022-12-18T22:28:31.772Z,-0.64
2022-12-18T22:30:35.280Z,-0.64
2022-12-18T22:32:40.310Z,-0.61
2022-12-18T22:34:43.709Z,-0.62
2022-12-18T22:36:49.084Z,-0.66
2022-12-18T22:38:52.337Z,-0.61
2022-12-18T22:40:57.185Z,-0.63
2022-12-18T22:43:00.509Z,-0.65
2022-12-18T22:45:03.793Z,-0.62
2022-12-18T22:47:07.538Z,-0.88
2022-12-18T22:49:14.095Z,-0.58
2022-12-18T22:51:20.159Z,-0.50
2022-12-18T22:53:23.553Z,-0.48
2022-12-18T22:55:26.841Z,-0.52
2022-12-18T22:57:30.112Z,-0.55
2022-12-18T22:59:33.407Z,-0.52
2022-12-18T23:01:36.996Z,-0.50
2022-12-18T23:03:42.464Z,-0.46
2022-12-18T23:05:47.742Z,-0.49
2022-12-18T23:07:51.038Z,-0.45
2022-12-18T23:10:00.729Z,-0.47
2022-12-18T23:12:05.443Z,-0.49
2022-12-18T23:14:08.729Z,-0.46
2022-12-18T23:16:15.707Z,-0.43
2022-12-18T23:18:19.241Z,-0.42
2022-12-18T23:20:22.504Z,-0.37
2022-12-18T23:22:27.541Z,-0.38
2022-12-18T23:24:31.021Z,-0.35
2022-12-18T23:26:38.198Z,-0.31
2022-12-18T23:28:41.980Z,-0.35
2022-12-18T23:30:45.380Z,-0.40
2022-12-18T23:32:48.709Z,-0.32
2022-12-18T23:34:51.988Z,-0.29
2022-12-18T23:36:56.207Z,-0.27
2022-12-18T23:39:02.100Z,-0.26
2022-12-18T23:41:10.325Z,-0.24
2022-12-18T23:43:13.667Z,-0.34
2022-12-18T23:45:18.148Z,-0.27
2022-12-18T23:47:21.918Z,-0.25
2022-12-18T23:49:25.208Z,-0.26
2022-12-18T23:51:29.935Z,-0.20
2022-12-18T23:53:33.260Z,-0.22
2022-12-18T23:55:41.562Z,-0.22
2022-12-18T23:57:44.896Z,-0.17
2022-12-18T23:59:48.160Z,-0.16
